Latest Weather Observations for Laverton

IDW60801

Issued at 9:03 am WST Saturday 10 December 2016 (issued every 30 minutes, with the page automatically refreshed every 10 minutes)

About weather observations | Map of weather stations | Latest weather observations for WA | Other Formats
Station Details ID: 012305 Name: LAVERTON AERO Lat: -28.61 Lon: 122.42 Height: 464.3 m
Data from the previous 72 hours. | See also: Recent months at Laverton
Date/Time
WST
Temp
°C
App
Temp
°C
Dew
Point
°C
Rel
Hum
%
Delta-T
°C
Wind Press
QNH
hPa
Press
MSL
hPa
Rain since
9am
mm
Dir  Spd
km/h
Gust
km/h
Spd
kts
Gust
kts
10/09:00am 32.4 26.7 0.5 13 15.9 ENE 20 28 11 15 1018.4 1015.5 0.0
10/08:30am 30.4 24.7 2.6 17 14.2 ENE 22 30 12 16 1018.8 1015.8 0.0
10/08:00am 29.2 22.7 2.5 18 13.5 ENE 26 32 14 17 1018.9 1015.9 0.0
10/07:30am 27.8 22.0 4.2 22 12.2 ENE 24 32 13 17 1019.1 1016.1 0.0
10/07:00am 25.6 19.4 4.1 25 10.9 ENE 26 37 14 20 1018.8 1015.8 0.0
10/06:30am 24.1 18.2 4.0 27 10.1 ENE 24 33 13 18 1018.9 1015.9 0.0
10/06:00am 23.0 17.5 4.0 29 9.5 ENE 22 32 12 17 1018.5 1015.6 0.0
10/05:30am 21.9 15.6 3.6 30 9.0 ENE 26 32 14 17 1017.7 1014.8 0.0
10/05:00am 21.1 15.5 3.3 31 8.7 ENE 22 30 12 16 1017.5 1014.5 0.0
10/04:30am 21.1 15.9 3.3 31 8.7 ENE 20 28 11 15 1017.5 1014.5 0.0
10/04:00am 21.5 16.2 3.2 30 8.9 ENE 20 26 11 14 1016.9 1013.9 0.0
10/03:30am 21.6 15.9 2.8 29 9.1 ENE 22 30 12 16 1016.5 1013.5 0.0
10/03:00am 21.8 16.5 3.0 29 9.1 ENE 20 24 11 13 1016.2 1013.3 0.0
10/02:30am 21.7 17.0 2.9 29 9.1 ENE 17 20 9 11 1016.1 1013.2 0.0
10/02:00am 22.4 17.3 3.0 28 9.5 ENE 19 22 10 12 1016.0 1013.1 0.0
10/01:30am 22.6 17.4 2.7 27 9.7 ENE 19 22 10 12 1015.9 1013.0 0.0
10/01:00am 23.1 17.7 2.6 26 10.0 ENE 20 26 11 14 1015.8 1012.9 0.0
10/12:30am 23.6 18.2 2.4 25 10.3 ENE 20 26 11 14 1016.0 1013.1 0.0
10/12:00am 24.5 18.8 2.6 24 10.8 E 22 28 12 15 1016.0 1013.1 0.0
 
Date/Time
WST
Temp
°C
App
Temp
°C
Dew
Point
°C
Rel
Hum
%
Delta-T
°C
Wind Press
QNH
hPa
Press
MSL
hPa
Rain since
9am
mm
Dir  Spd
km/h
Gust
km/h
Spd
kts
Gust
kts
09/11:30pm 25.1 19.3 2.5 23 11.2 E 22 28 12 15 1016.1 1013.2 0.0
09/11:00pm 25.5 19.7 2.2 22 11.5 E 22 30 12 16 1016.3 1013.4 0.0
09/10:30pm 26.0 19.8 2.0 21 11.8 E 24 30 13 16 1016.3 1013.4 0.0
09/10:00pm 26.7 20.7 1.2 19 12.4 E 22 28 12 15 1016.5 1013.5 0.0
09/09:30pm 27.0 21.4 1.4 19 12.5 E 20 24 11 13 1016.3 1013.4 0.0
09/09:00pm 27.6 22.2 1.2 18 12.9 E 19 26 10 14 1016.3 1013.4 0.0
09/08:30pm 28.4 23.0 1.0 17 13.5 E 19 24 10 13 1016.1 1013.2 0.0
09/08:00pm 29.2 24.7 -0.1 15 14.2 ESE 13 17 7 9 1016.1 1013.2 0.0
09/07:30pm 29.7 25.5 -0.6 14 14.6 ESE 11 19 6 10 1016.0 1013.1 0.0
09/07:00pm 31.1 27.6 -1.6 12 15.6 S 7 9 4 5 1015.6 1012.7 0.0
09/06:30pm 31.6 27.7 -1.2 12 15.9 SW 9 15 5 8 1015.3 1012.3 0.0
09/06:00pm 32.3 27.0 -0.7 12 16.2 SSW 17 24 9 13 1015.1 1012.1 0.0
09/05:30pm 32.4 27.5 -0.6 12 16.2 SSW 15 22 8 12 1014.8 1011.8 0.0
09/05:00pm 33.2 28.2 -1.2 11 16.8 SSW 15 26 8 14 1014.6 1011.6 0.0
09/04:30pm 32.5 28.6 -1.7 11 16.5 S 9 22 5 12 1014.6 1011.6 0.0
09/04:00pm 33.1 29.6 -1.3 11 16.8 W 7 17 4 9 1014.8 1011.8 0.0
09/03:30pm 32.5 27.4 -1.7 11 16.5 S 15 28 8 15 1014.9 1011.9 0.0
09/03:00pm 31.9 26.7 0.1 13 15.7 S 17 28 9 15 1015.2 1012.2 0.0
09/02:30pm 31.9 25.8 0.1 13 15.7 SE 22 32 12 17 1015.3 1012.3 0.0
09/02:00pm 32.0 27.2 0.2 13 15.8 S 15 28 8 15 1015.6 1012.7 0.0
09/01:30pm 31.0 26.1 -0.6 13 15.4 S 15 26 8 14 1016.0 1013.1 0.0
09/01:00pm 30.8 25.8 1.2 15 14.8 S 17 26 9 14 1016.6 1013.6 0.0
09/12:30pm 29.8 26.4 2.1 17 14.0 WSW 9 20 5 11 1016.8 1013.8 0.0
09/12:00pm 29.8 25.4 2.9 18 13.8 SSE 15 24 8 13 1017.1 1014.1 0.0
09/11:30am 29.0 24.8 3.8 20 13.0 SE 15 22 8 12 1017.7 1014.8 0.0
09/11:00am 27.8 23.2 3.5 21 12.4 ESE 17 26 9 14 1018.3 1015.4 0.0
09/10:30am 27.2 23.4 3.7 22 12.0 ENE 13 20 7 11 1018.8 1015.8 0.0
09/10:00am 26.4 22.5 5.4 26 11.0 E 15 24 8 13 1019.1 1016.1 0.0
09/09:30am 25.1 20.9 5.8 29 10.1 ENE 17 35 9 19 1019.3 1016.3 0.0
09/09:00am 24.3 19.1 5.6 30 9.7 ENE 22 33 12 18 1019.5 1016.6 0.0
09/08:30am 22.4 16.5 5.8 34 8.6 NE 26 35 14 19 1019.6 1016.7 0.0
09/08:00am 21.2 15.4 6.3 38 7.7 ENE 26 37 14 20 1019.7 1016.8 0.0
09/07:30am 20.4 14.2 6.0 39 7.4 ENE 28 35 15 19 1019.6 1016.7 0.0
09/07:00am 19.1 12.9 6.2 43 6.5 ENE 28 37 15 20 1019.6 1016.7 0.0
09/06:30am 18.2 11.2 6.1 45 6.1 E 32 43 17 23 1019.3 1016.3 0.0
09/06:00am 17.3 10.2 6.2 48 5.6 E 33 43 18 23 1019.0 1016.0 0.0
09/05:30am 16.5 9.4 5.5 48 5.4 E 32 41 17 22 1018.4 1015.5 0.0
09/05:00am 16.5 9.7 4.9 46 5.6 E 30 41 16 22 1018.2 1015.3 0.0
09/04:30am 16.9 10.8 2.9 39 6.6 E 24 30 13 16 1018.2 1015.3 0.0
09/04:00am 18.0 11.6 1.1 32 7.7 E 24 30 13 16 1018.0 1015.1 0.0
09/03:30am 18.6 12.7 1.6 32 7.9 ENE 22 28 12 15 1017.8 1014.9 0.0
09/03:00am 18.9 12.6 1.4 31 8.1 ENE 24 32 13 17 1017.8 1014.9 0.0
09/02:30am 19.0 12.6 1.1 30 8.2 E 24 30 13 16 1017.8 1014.9 0.0
09/02:00am 19.3 13.3 0.8 29 8.5 E 22 28 12 15 1017.9 1015.0 0.0
09/01:30am 19.2 14.1 0.8 29 8.4 ENE 17 20 9 11 1018.0 1015.1 0.0
09/01:00am 19.1 14.3 0.2 28 8.5 E 15 19 8 10 1018.2 1015.3 0.0
09/12:30am 19.7 14.5 0.2 27 8.8 E 17 19 9 10 1018.3 1015.4 0.0
09/12:00am 20.5 15.0 0.4 26 9.2 E 19 22 10 12 1018.3 1015.4 0.0
 
Date/Time
WST
Temp
°C
App
Temp
°C
Dew
Point
°C
Rel
Hum
%
Delta-T
°C
Wind Press
QNH
hPa
Press
MSL
hPa
Rain since
9am
mm
Dir  Spd
km/h
Gust
km/h
Spd
kts
Gust
kts
08/11:30pm 21.3 15.5 -0.1 24 9.8 E 20 24 11 13 1018.4 1015.5 0.0
08/11:00pm 22.1 16.5 0.0 23 10.2 E 19 24 10 13 1018.5 1015.6 0.0
08/10:30pm 22.5 17.2 -0.3 22 10.5 E 17 22 9 12 1018.5 1015.6 0.0
08/10:00pm 22.8 17.8 -1.3 20 10.9 ESE 15 17 8 9 1018.5 1015.6 0.0
08/09:30pm 23.5 18.9 -1.4 19 11.3 ESE 13 17 7 9 1018.5 1015.6 0.0
08/09:00pm 24.5 19.1 -1.3 18 11.8 ESE 17 22 9 12 1018.2 1015.3 0.0
08/08:30pm 25.1 20.1 -0.9 18 12.1 ESE 15 17 8 9 1018.0 1015.1 0.0
08/08:00pm 25.7 20.7 -1.2 17 12.4 E 15 20 8 11 1017.8 1014.9 0.0
08/07:30pm 26.6 20.6 -1.3 16 13.0 ESE 20 24 11 13 1017.4 1014.4 0.0
08/07:00pm 27.2 21.9 -0.8 16 13.2 ESE 17 24 9 13 1016.9 1013.9 0.0
08/06:30pm 27.8 21.8 -1.2 15 13.6 ESE 20 30 11 16 1016.3 1013.4 0.0
08/06:00pm 28.5 22.6 -0.6 15 13.9 SE 20 28 11 15 1015.9 1013.0 0.0
08/05:30pm 28.7 23.0 0.4 16 13.8 SE 20 32 11 17 1015.8 1012.9 0.0
08/05:00pm 29.2 23.7 0.8 16 14.0 SE 19 28 10 15 1015.7 1012.8 0.0
08/04:30pm 29.1 23.6 0.7 16 13.9 ESE 19 26 10 14 1015.6 1012.7 0.0
08/04:00pm 28.4 23.0 1.0 17 13.5 SSE 19 30 10 16 1015.7 1012.8 0.0
08/03:30pm 28.6 23.3 2.0 18 13.3 SSE 19 28 10 15 1015.9 1013.0 0.0
08/03:00pm 29.6 24.7 2.0 17 13.9 ESE 17 39 9 21 1016.1 1013.2 0.0
08/02:30pm 28.4 23.5 1.8 18 13.3 SSE 17 24 9 13 1016.3 1013.4 0.0
08/02:00pm 28.3 23.9 2.5 19 13.0 ESE 15 28 8 15 1016.6 1013.6 0.0
08/01:30pm 27.6 21.5 2.6 20 12.6 ESE 24 35 13 19 1016.9 1013.9 0.0
08/01:00pm 27.7 21.6 2.7 20 12.6 SE 24 35 13 19 1017.2 1014.2 0.0
08/12:30pm 26.1 20.1 3.4 23 11.5 ESE 24 33 13 18 1017.5 1014.5 0.0
08/12:00pm 25.4 20.3 4.0 25 10.9 ESE 20 32 11 17 1018.2 1015.3 0.0
08/11:30am 24.3 19.3 4.6 28 10.0 ESE 20 32 11 17 1018.5 1015.6 0.0
08/11:00am 23.3 18.2 4.3 29 9.6 ESE 20 30 11 16 1019.1 1016.1 0.0
08/10:30am 21.8 15.9 3.9 31 8.9 ESE 24 35 13 19 1019.5 1016.6 0.0
08/10:00am 21.5 15.6 4.1 32 8.6 ESE 24 35 13 19 1019.8 1016.9 0.0
08/09:30am 20.9 14.6 4.0 33 8.3 E 26 35 14 19 1020.1 1017.2 0.0
08/09:00am 20.0 14.4 5.3 38 7.4 ESE 24 33 13 18 1020.1 1017.2 0.0
08/08:30am 19.5 13.1 5.2 39 7.1 ESE 28 39 15 21 1020.1 1017.2 0.0
08/08:00am 18.6 12.2 5.1 41 6.7 ESE 28 37 15 20 1020.1 1017.2 0.0
08/07:30am 17.9 11.0 4.8 42 6.4 ESE 30 37 16 20 1020.0 1017.1 0.0
08/07:00am 17.1 10.0 5.4 46 5.8 ESE 32 41 17 22 1019.8 1016.9 0.0
08/06:30am 16.9 9.5 5.2 46 5.7 E 33 41 18 22 1019.7 1016.8 0.0
08/06:00am 16.6 9.5 5.3 47 5.5 ESE 32 39 17 21 1019.6 1016.7 0.0
08/05:30am 16.4 9.1 5.4 48 5.4 E 33 44 18 24 1019.4 1016.4 0.0
08/05:00am 16.5 9.7 5.2 47 5.5 E 30 39 16 21 1019.0 1016.0 0.0
08/04:30am 17.1 10.4 5.4 46 5.8 E 30 43 16 23 1018.4 1015.5 0.0
08/04:00am 17.9 11.9 5.2 43 6.3 ESE 26 33 14 18 1017.8 1014.9 0.0
08/03:30am 18.6 12.0 4.0 38 7.1 ESE 28 37 15 20 1017.4 1014.4 0.0
08/03:00am 19.0 12.6 3.2 35 7.6 ESE 26 35 14 19 1017.2 1014.2 0.0
08/02:30am 19.4 12.7 3.6 35 7.6 ESE 28 35 15 19 1017.0 1014.0 0.0
08/02:00am 19.9 12.4 3.6 34 7.9 ESE 32 41 17 22 1016.5 1013.5 0.0
08/01:30am 20.4 12.9 4.4 35 7.9 SE 33 43 18 23 1016.1 1013.2 0.0
08/01:00am 20.9 12.3 4.9 35 8.0 SE 39 52 21 28 1015.6 1012.7 0.0
08/12:47am 21.3 13.3 5.6 36 8.0 SE 37 56 20 30 1015.3 1012.3 0.0
08/12:30am 21.9 14.8 6.6 37 8.0 SE 33 48 18 26 1015.1 1012.1 0.0
08/12:00am 22.9 15.3 7.4 37 8.2 SE 37 48 20 26 1015.0 1012.0 0.0
 
Date/Time
WST
Temp
°C
App
Temp
°C
Dew
Point
°C
Rel
Hum
%
Delta-T
°C
Wind Press
QNH
hPa
Press
MSL
hPa
Rain since
9am
mm
Dir  Spd
km/h
Gust
km/h
Spd
kts
Gust
kts
07/11:30pm 25.0 17.5 4.2 26 10.6 SSE 33 46 18 25 1014.7 1011.7 0.0
07/11:00pm 26.0 20.5 3.9 24 11.2 SSE 22 32 12 17 1014.7 1011.7 0.0
07/10:30pm 26.5 20.9 3.7 23 11.6 SSE 22 32 12 17 1014.6 1011.6 0.0
07/10:00pm 27.0 21.1 4.1 23 11.8 SSE 24 35 13 19 1014.6 1011.6 0.0
07/09:30pm 27.7 21.2 4.7 23 12.0 SSE 28 35 15 19 1014.4 1011.4 0.0
07/09:00pm 28.8 23.0 2.1 18 13.4 S 22 28 12 15 1013.7 1010.8 0.0
07/08:30pm 29.5 23.3 1.9 17 13.9 S 24 33 13 18 1013.3 1010.3 0.0
07/08:00pm 30.5 24.1 1.0 15 14.7 S 24 37 13 20 1012.8 1009.8 0.0
07/07:30pm 31.1 24.7 -1.6 12 15.6 SSW 22 30 12 16 1012.3 1009.3 0.0
07/07:00pm 31.6 24.4 -2.4 11 16.1 S 26 35 14 19 1011.6 1008.6 0.0
07/06:30pm 32.6 24.9 -2.9 10 16.8 SSW 28 39 15 21 1011.0 1008.0 0.0
07/06:00pm 33.5 25.7 -3.7 9 17.5 SW 28 39 15 21 1010.6 1007.6 0.0
07/05:30pm 34.3 27.0 -3.1 9 17.9 SW 26 37 14 20 1010.2 1007.2 0.0
07/05:00pm 34.8 27.2 -6.0 7 18.7 SW 26 43 14 23 1010.0 1007.0 0.0
07/04:30pm 35.3 27.3 -5.7 7 18.9 SSW 28 50 15 27 1009.8 1006.7 0.0
07/04:13pm 36.1 27.8 -5.1 7 19.3 WSW 30 48 16 26 1009.7 1006.6 0.0
07/04:00pm 35.6 28.4 -5.5 7 19.1 SW 24 37 13 20 1009.8 1006.7 0.0
07/03:30pm 36.2 28.1 -3.3 8 19.0 WSW 30 48 16 26 1009.8 1006.7 0.0
07/03:03pm 36.0 28.2 -3.4 8 18.9 WSW 28 46 15 25 1009.9 1006.9 0.0
07/03:00pm 35.9 28.3 -5.2 7 19.2 WSW 26 46 14 25 1009.9 1006.9 0.0
07/02:30pm 37.0 27.4 -4.4 7 19.7 WSW 37 56 20 30 1010.1 1007.1 0.0
07/02:13pm 36.9 27.5 -6.5 6 20.0 WSW 35 54 19 29 1010.1 1007.1 0.0
07/02:00pm 36.9 27.5 -6.5 6 20.0 WSW 35 46 19 25 1010.2 1007.2 0.0
07/01:30pm 35.7 26.8 -5.4 7 19.1 WSW 33 61 18 33 1010.3 1007.3 0.0
07/01:00pm 36.5 27.8 -4.8 7 19.5 WSW 32 50 17 27 1010.7 1007.7 0.0
07/12:55pm 36.2 27.5 -5.0 7 19.3 WSW 32 50 17 27 1010.5 1007.5 0.0
07/12:30pm 36.7 27.9 -4.7 7 19.6 WSW 33 50 18 27 1010.6 1007.6 0.0
07/12:02pm 35.2 27.0 -4.0 8 18.6 WSW 30 46 16 25 1010.9 1007.9 0.0
07/12:00pm 35.9 28.5 -3.5 8 18.9 WSW 26 39 14 21 1011.0 1008.0 0.0
07/11:30am 35.4 27.2 -3.8 8 18.6 WSW 30 48 16 26 1011.2 1008.2 0.0
07/11:17am 35.9 28.3 -1.9 9 18.6 WSW 28 46 15 25 1011.4 1008.4 0.0
07/11:00am 34.5 28.3 -2.9 9 18.0 WSW 20 33 11 18 1011.7 1008.8 0.0
07/10:30am 33.9 27.1 -2.0 10 17.4 WSW 24 37 13 20 1012.2 1009.2 0.0
07/10:00am 33.4 26.5 -2.3 10 17.2 WSW 24 35 13 19 1012.4 1009.4 0.0
07/09:30am 32.8 26.0 -1.5 11 16.6 SW 24 33 13 18 1011.8 1008.9 0.0

Other Formats:

Comma delimited format used in spreadsheet applications
http://www.bom.gov.au/fwo/IDW60801/IDW60801.94449.axf

JavaScript Object Notation format (JSON) in row-major order
http://www.bom.gov.au/fwo/IDW60801/IDW60801.94449.json